Time;durP1;ratioP1;P1;durP2;ratioP2;P2;SDS_P1;SDS_P2;PMS_P1;PMS_P2;Temp;Humidity;BMP_temperature;BMP_pressure;BME280_temperature;BME280_humidity;BME280_pressure;Samples;Min_cycle;Max_cycle;Signal;HPM_P1;HPM_P2
2022/04/03 00:00:55;;;;;;;15.37;13.87;;;2.90;99.90;;;;;;5033735;28;20628;-74
2022/04/03 00:03:20;;;;;;;15.33;13.70;;;2.60;99.90;;;;;;5033776;28;20684;-74
2022/04/03 00:05:46;;;;;;;19.20;15.67;;;2.40;99.90;;;;;;5034233;28;20190;-75
2022/04/03 00:08:15;;;;;;;17.27;15.60;;;2.30;99.90;;;;;;5015962;28;20168;-75
2022/04/03 00:10:44;;;;;;;16.93;15.20;;;2.50;99.90;;;;;;5032611;28;20179;-76
2022/04/03 00:13:09;;;;;;;15.73;14.10;;;2.50;99.90;;;;;;5033427;28;20938;-75
2022/04/03 00:15:41;;;;;;;15.23;13.67;;;2.50;99.90;;;;;;5033586;28;20411;-75
2022/04/03 00:18:07;;;;;;;16.97;15.20;;;2.40;99.90;;;;;;5033455;28;20647;-75
2022/04/03 00:20:33;;;;;;;16.23;14.57;;;2.60;99.90;;;;;;5033272;28;20473;-76
2022/04/03 00:22:58;;;;;;;16.03;14.17;;;2.60;99.90;;;;;;5033328;28;20568;-75
2022/04/03 00:25:24;;;;;;;18.77;16.37;;;2.60;99.90;;;;;;5033160;28;20171;-75
2022/04/03 00:27:49;;;;;;;14.20;12.40;;;2.50;99.90;;;;;;5031780;28;20179;-75
2022/04/03 00:30:16;;;;;;;16.60;14.90;;;2.50;99.90;;;;;;5033219;28;20167;-75
2022/04/03 00:32:42;;;;;;;15.30;13.70;;;2.60;99.90;;;;;;5033365;28;20167;-75
2022/04/03 00:35:08;;;;;;;16.67;15.00;;;2.50;99.90;;;;;;5033186;28;20426;-73
2022/04/03 00:37:33;;;;;;;15.77;13.00;;;2.40;99.90;;;;;;5033629;28;20625;-76
2022/04/03 00:39:59;;;;;;;15.80;14.30;;;2.30;99.90;;;;;;5015457;28;20418;-75
2022/04/03 00:42:26;;;;;;;16.43;14.80;;;2.40;99.90;;;;;;5032369;28;20198;-75
2022/04/03 00:44:51;;;;;;;16.27;14.70;;;2.50;99.90;;;;;;5032982;28;20605;-74
2022/04/03 00:47:19;;;;;;;18.30;14.73;;;2.40;99.90;;;;;;5033250;28;20405;-72
2022/04/03 00:49:45;;;;;;;15.87;14.27;;;2.60;99.90;;;;;;5033137;28;20175;-75
2022/04/03 00:52:11;;;;;;;16.10;14.50;;;2.70;99.90;;;;;;5032241;28;20422;-74
2022/04/03 00:54:37;;;;;;;18.37;16.57;;;2.80;99.90;;;;;;5015118;28;20521;-75
2022/04/03 00:57:06;;;;;;;21.60;17.00;;;2.60;99.90;;;;;;5032774;28;20593;-76
2022/04/03 00:59:33;;;;;;;19.70;16.87;;;2.70;99.90;;;;;;5032748;28;20699;-76
2022/04/03 01:01:59;;;;;;;16.37;14.87;;;2.70;99.90;;;;;;5015039;28;20449;-76
2022/04/03 01:04:24;;;;;;;16.40;14.80;;;2.70;99.90;;;;;;5032801;28;20437;-74
2022/04/03 01:06:50;;;;;;;17.50;15.73;;;2.60;99.90;;;;;;5015224;28;20163;-75
2022/04/03 01:09:16;;;;;;;16.10;13.40;;;2.40;99.90;;;;;;5032829;28;20170;-73
2022/04/03 01:11:43;;;;;;;15.50;13.90;;;2.30;99.90;;;;;;5032654;28;20406;-75
2022/04/03 01:14:09;;;;;;;15.33;13.80;;;2.30;99.90;;;;;;5031469;28;20245;-75
2022/04/03 01:16:35;;;;;;;17.93;15.40;;;2.40;99.90;;;;;;5034101;28;20417;-75
2022/04/03 01:19:02;;;;;;;19.07;16.17;;;2.40;99.90;;;;;;5032957;28;20167;-75
2022/04/03 01:21:27;;;;;;;18.30;15.07;;;2.60;99.90;;;;;;5033258;28;20469;-75
2022/04/03 01:23:55;;;;;;;18.40;16.53;;;2.90;99.90;;;;;;5032758;28;20434;-76
2022/04/03 01:26:22;;;;;;;18.17;16.30;;;2.70;99.90;;;;;;5034000;28;20174;-75
2022/04/03 01:28:47;;;;;;;16.90;15.10;;;2.70;99.90;;;;;;5032872;28;20421;-75
2022/04/03 01:31:13;;;;;;;16.17;14.47;;;2.70;99.90;;;;;;5014914;28;20413;-74
2022/04/03 01:33:39;;;;;;;17.37;15.50;;;2.60;99.90;;;;;;5031522;28;20294;-75
2022/04/03 01:36:05;;;;;;;18.80;16.83;;;2.60;99.90;;;;;;5032820;28;20164;-75
2022/04/03 01:38:30;;;;;;;16.93;15.17;;;2.90;99.90;;;;;;5032625;28;20167;-72
2022/04/03 01:40:56;;;;;;;20.30;16.10;;;2.70;99.90;;;;;;5031396;28;20509;-76
2022/04/03 01:43:21;;;;;;;18.50;16.70;;;2.90;99.90;;;;;;5032287;28;20199;-75
2022/04/03 01:45:47;;;;;;;17.47;15.60;;;2.80;99.90;;;;;;5032518;28;20163;-75
2022/04/03 01:48:13;;;;;;;15.93;14.27;;;2.80;99.90;;;;;;5032307;28;20174;-76
2022/04/03 01:50:38;;;;;;;18.87;16.47;;;2.90;99.90;;;;;;5032698;28;20191;-75
2022/04/03 01:53:05;;;;;;;17.00;15.20;;;3.00;99.90;;;;;;5032321;28;20195;-75
2022/04/03 01:55:31;;;;;;;16.90;15.20;;;2.80;99.90;;;;;;5032119;28;20172;-75
2022/04/03 01:57:57;;;;;;;15.10;13.50;;;2.80;99.90;;;;;;5032356;28;20733;-73
2022/04/03 02:00:23;;;;;;;16.83;14.70;;;2.90;99.90;;;;;;5032626;28;20413;-75
2022/04/03 02:02:50;;;;;;;17.10;15.43;;;2.90;99.90;;;;;;5034246;28;20683;-75
2022/04/03 02:05:16;;;;;;;15.63;13.93;;;3.20;99.90;;;;;;5036189;28;20410;-76
2022/04/03 02:07:42;;;;;;;19.93;14.40;;;3.30;99.90;;;;;;5036388;28;20481;-75
2022/04/03 02:10:09;;;;;;;14.40;12.93;;;3.10;99.90;;;;;;5035014;28;20464;-74
2022/04/03 02:12:38;;;;;;;13.43;12.07;;;2.90;99.90;;;;;;5035343;28;20193;-75
2022/04/03 02:15:07;;;;;;;13.60;12.30;;;2.60;99.90;;;;;;5034488;28;20452;-76
2022/04/03 02:17:33;;;;;;;16.10;13.03;;;2.50;99.90;;;;;;5035986;28;20504;-76
2022/04/03 02:19:58;;;;;;;15.80;14.20;;;2.70;99.90;;;;;;5035860;28;20518;-76
2022/04/03 02:22:24;;;;;;;16.57;14.00;;;2.90;99.90;;;;;;5035793;28;20202;-76
2022/04/03 02:24:49;;;;;;;14.13;12.73;;;3.20;99.90;;;;;;5035814;28;20187;-76
2022/04/03 02:27:15;;;;;;;15.60;14.10;;;3.20;99.90;;;;;;5035502;28;20175;-76
2022/04/03 02:29:41;;;;;;;13.47;12.17;;;3.00;99.90;;;;;;5034968;28;20164;-76
2022/04/03 02:32:07;;;;;;;13.80;12.40;;;2.90;99.90;;;;;;5035677;28;20901;-75
2022/04/03 02:34:32;;;;;;;16.07;14.50;;;2.70;99.90;;;;;;5035275;28;20198;-76
2022/04/03 02:36:58;;;;;;;16.60;13.00;;;2.80;99.90;;;;;;5035341;28;20899;-76
2022/04/03 02:39:24;;;;;;;18.97;15.47;;;2.90;99.90;;;;;;5035510;28;20575;-76
2022/04/03 02:41:50;;;;;;;16.23;14.50;;;2.80;99.90;;;;;;5035149;28;20449;-75
2022/04/03 02:44:16;;;;;;;15.43;13.80;;;2.70;99.90;;;;;;5034740;28;20260;-75
2022/04/03 02:46:41;;;;;;;16.87;14.20;;;2.60;99.90;;;;;;5035120;28;20171;-75
2022/04/03 02:49:08;;;;;;;16.93;15.23;;;2.60;99.90;;;;;;5035416;28;20417;-75
2022/04/03 02:51:34;;;;;;;16.90;13.57;;;2.70;99.90;;;;;;5035352;28;20666;-77
2022/04/03 02:54:00;;;;;;;22.40;14.70;;;2.40;99.90;;;;;;5035587;28;20433;-76
2022/04/03 02:56:26;;;;;;;18.80;16.00;;;2.40;99.90;;;;;;5035991;28;20418;-76
2022/04/03 02:58:53;;;;;;;17.17;15.37;;;2.80;99.90;;;;;;5035515;28;20160;-76
2022/04/03 03:01:19;;;;;;;15.50;13.90;;;3.00;99.90;;;;;;5035254;28;20229;-75
2022/04/03 03:03:45;;;;;;;19.53;16.53;;;3.10;99.90;;;;;;5034908;28;20419;-75
2022/04/03 03:06:10;;;;;;;14.23;12.63;;;3.20;99.90;;;;;;5035312;28;20455;-74
2022/04/03 03:08:36;;;;;;;14.67;13.13;;;3.30;99.90;;;;;;5034772;28;20163;-74
2022/04/03 03:11:02;;;;;;;13.80;12.50;;;3.10;99.90;;;;;;5034765;28;20164;-75
2022/04/03 03:13:27;;;;;;;15.27;13.67;;;2.60;99.90;;;;;;5033745;28;20191;-75
2022/04/03 03:15:54;;;;;;;15.00;13.40;;;2.50;99.90;;;;;;5034392;28;20402;-75
2022/04/03 03:18:20;;;;;;;14.97;13.23;;;2.50;99.90;;;;;;5034903;28;20229;-75
2022/04/03 03:20:46;;;;;;;17.03;13.07;;;2.80;99.90;;;;;;5034568;28;20409;-76
2022/04/03 03:23:11;;;;;;;15.77;14.10;;;2.90;99.90;;;;;;5034362;28;20195;-76
2022/04/03 03:25:37;;;;;;;14.93;12.87;;;3.10;99.90;;;;;;5035041;28;20398;-77
2022/04/03 03:28:03;;;;;;;15.20;13.60;;;3.20;99.90;;;;;;5036472;28;20159;-76
2022/04/03 03:30:28;;;;;;;13.70;12.40;;;3.10;99.90;;;;;;5033980;28;20167;-75
2022/04/03 03:32:54;;;;;;;15.07;13.20;;;2.80;99.90;;;;;;5017605;28;20175;-76
2022/04/03 03:35:20;;;;;;;15.37;13.83;;;2.90;99.90;;;;;;5045898;28;20544;-75
2022/04/03 03:37:45;;;;;;;15.40;13.30;;;3.00;99.90;;;;;;5034494;28;20202;-74
2022/04/03 03:40:14;;;;;;;17.20;14.43;;;3.10;99.90;;;;;;5016603;28;20605;-77
2022/04/03 03:42:41;;;;;;;14.10;12.53;;;3.10;99.90;;;;;;5034321;28;20511;-76
2022/04/03 03:45:09;;;;;;;16.70;14.97;;;2.90;99.90;;;;;;5033952;28;20820;-76
2022/04/03 03:47:34;;;;;;;14.07;12.67;;;2.70;99.90;;;;;;5033547;28;20463;-75
2022/04/03 03:50:00;;;;;;;17.17;14.80;;;2.70;99.90;;;;;;5016304;28;20418;-76
2022/04/03 03:52:26;;;;;;;15.40;13.90;;;2.90;99.90;;;;;;5033771;28;20417;-75
2022/04/03 03:54:52;;;;;;;16.93;14.10;;;3.00;99.90;;;;;;5033894;28;20238;-75
2022/04/03 03:57:18;;;;;;;17.13;14.97;;;3.00;99.90;;;;;;5033759;28;20195;-75
2022/04/03 03:59:44;;;;;;;16.53;14.60;;;2.70;99.90;;;;;;5033825;28;20444;-75
2022/04/03 04:02:09;;;;;;;16.10;13.90;;;2.60;99.90;;;;;;5033661;28;20230;-76
2022/04/03 04:04:35;;;;;;;15.60;13.83;;;2.40;99.90;;;;;;5033627;28;20190;-76
2022/04/03 04:07:01;;;;;;;19.07;15.40;;;2.40;99.90;;;;;;5033262;28;20179;-75
2022/04/03 04:09:26;;;;;;;16.67;14.33;;;2.70;99.90;;;;;;5033950;28;20506;-75
2022/04/03 04:11:52;;;;;;;17.17;13.97;;;2.60;99.90;;;;;;5034138;28;20202;-75
2022/04/03 04:14:18;;;;;;;15.70;13.50;;;2.60;99.90;;;;;;5032274;28;20199;-75
2022/04/03 04:16:45;;;;;;;16.07;13.70;;;2.40;99.90;;;;;;5015946;28;20459;-75
2022/04/03 04:19:12;;;;;;;19.67;12.60;;;2.50;99.90;;;;;;5033661;28;20167;-75
2022/04/03 04:21:38;;;;;;;15.23;12.90;;;2.60;99.90;;;;;;5015701;28;20410;-77
2022/04/03 04:24:04;;;;;;;17.13;13.90;;;2.80;99.90;;;;;;5033393;28;20421;-74
2022/04/03 04:26:30;;;;;;;15.20;13.47;;;2.50;99.90;;;;;;5010415;28;20269;-75
2022/04/03 04:28:55;;;;;;;15.37;13.77;;;2.60;99.90;;;;;;5032380;28;20172;-76
2022/04/03 04:31:21;;;;;;;14.57;13.07;;;2.60;99.90;;;;;;5024232;28;20182;-77
2022/04/03 04:33:46;;;;;;;17.63;14.40;;;2.30;99.90;;;;;;5023844;28;20207;-76
2022/04/03 04:36:12;;;;;;;15.50;13.83;;;2.30;99.90;;;;;;5024013;28;20177;-77
2022/04/03 04:38:38;;;;;;;17.80;15.60;;;2.40;99.90;;;;;;5024112;28;20706;-79
2022/04/03 04:41:04;;;;;;;15.77;13.17;;;2.50;99.90;;;;;;5024212;28;20186;-77
2022/04/03 04:43:29;;;;;;;15.87;14.03;;;2.50;99.90;;;;;;5023994;28;20218;-78
2022/04/03 04:45:55;;;;;;;17.13;14.33;;;2.50;99.90;;;;;;5023585;28;20410;-77
2022/04/03 04:48:21;;;;;;;13.77;12.37;;;2.70;99.90;;;;;;5024290;28;20497;-76
2022/04/03 04:50:46;;;;;;;16.50;13.33;;;2.90;99.90;;;;;;5023762;28;20628;-75
2022/04/03 04:53:12;;;;;;;15.73;13.30;;;2.70;99.90;;;;;;5023856;28;20211;-76
2022/04/03 04:55:39;;;;;;;15.00;13.43;;;2.60;99.90;;;;;;5023723;28;20241;-79
2022/04/03 04:58:05;;;;;;;14.47;12.73;;;2.40;99.90;;;;;;5023689;28;20187;-75
2022/04/03 05:00:30;;;;;;;14.50;12.90;;;2.50;99.90;;;;;;5023776;28;20432;-76
2022/04/03 05:02:57;;;;;;;13.93;12.50;;;2.30;99.90;;;;;;5023826;28;20210;-76
2022/04/03 05:05:22;;;;;;;12.63;11.10;;;2.20;99.90;;;;;;5023710;28;20414;-77
2022/04/03 05:07:53;;;;;;;16.70;14.00;;;2.20;99.90;;;;;;5024202;28;20414;-76
2022/04/03 05:10:19;;;;;;;14.40;12.90;;;2.40;99.90;;;;;;5023865;28;20421;-75
2022/04/03 05:12:45;;;;;;;13.37;11.93;;;2.50;99.90;;;;;;5024187;28;21369;-76
2022/04/03 05:15:12;;;;;;;14.27;12.53;;;2.40;99.90;;;;;;5022873;28;20507;-76
2022/04/03 05:17:42;;;;;;;13.87;12.40;;;2.30;99.90;;;;;;5028108;28;20194;-79
2022/04/03 05:20:09;;;;;;;12.97;11.57;;;2.10;99.90;;;;;;5024305;28;20418;-77
2022/04/03 05:22:34;;;;;;;14.07;12.60;;;2.10;99.90;;;;;;5023671;28;20454;-75
2022/04/03 05:25:03;;;;;;;13.43;11.97;;;2.00;99.90;;;;;;5023986;28;20961;-77
2022/04/03 05:27:29;;;;;;;15.80;12.47;;;2.20;99.90;;;;;;5024262;28;20229;-76
2022/04/03 05:29:55;;;;;;;12.53;11.33;;;2.40;99.90;;;;;;5022952;28;20487;-77
2022/04/03 05:32:28;;;;;;;13.17;11.83;;;2.20;99.90;;;;;;5023968;28;20815;-76
2022/04/03 05:34:55;;;;;;;12.93;11.63;;;2.30;99.90;;;;;;5014392;28;20480;-76
2022/04/03 05:37:21;;;;;;;13.90;12.40;;;2.30;99.90;;;;;;5025161;28;20925;-78
2022/04/03 05:39:47;;;;;;;13.47;12.03;;;2.40;99.90;;;;;;5027749;28;20969;-75
2022/04/03 05:42:13;;;;;;;13.53;11.10;;;2.60;99.90;;;;;;5009883;28;20572;-77
2022/04/03 05:44:39;;;;;;;15.03;13.07;;;2.70;99.90;;;;;;5029140;28;20438;-78
2022/04/03 05:47:05;;;;;;;14.27;12.77;;;2.60;99.90;;;;;;5028233;28;20541;-77
2022/04/03 05:49:31;;;;;;;11.73;10.50;;;2.70;99.90;;;;;;5027692;28;20572;-77
2022/04/03 05:51:56;;;;;;;12.83;11.53;;;2.80;99.90;;;;;;5034832;28;20459;-76
2022/04/03 05:54:22;;;;;;;13.53;11.10;;;3.00;99.90;;;;;;5036448;28;20187;-76
2022/04/03 05:56:48;;;;;;;13.37;11.97;;;3.20;99.90;;;;;;5036510;28;20258;-76
2022/04/03 05:59:14;;;;;;;13.10;11.20;;;3.20;99.90;;;;;;5035858;28;20179;-76
2022/04/03 06:01:40;;;;;;;12.20;10.87;;;3.30;99.90;;;;;;5036377;28;20636;-76
2022/04/03 06:04:05;;;;;;;19.80;14.77;;;3.30;99.90;;;;;;5036171;28;20187;-76
2022/04/03 06:06:31;;;;;;;38.57;26.30;;;3.30;99.90;;;;;;5036911;28;20402;-76
2022/04/03 06:08:57;;;;;;;25.83;19.17;;;3.40;99.90;;;;;;5036165;28;20695;-76
2022/04/03 06:11:22;;;;;;;10.63;9.57;;;3.50;99.90;;;;;;5036580;28;20171;-75
2022/04/03 06:13:48;;;;;;;11.00;9.90;;;3.30;99.90;;;;;;5034970;28;20206;-76
2022/04/03 06:16:13;;;;;;;19.10;13.93;;;3.00;99.90;;;;;;5017408;28;20265;-75
2022/04/03 06:18:39;;;;;;;10.83;9.73;;;3.00;99.90;;;;;;5035783;28;20183;-76
2022/04/03 06:21:05;;;;;;;10.93;9.83;;;2.80;99.90;;;;;;5035844;28;20179;-76
2022/04/03 06:23:31;;;;;;;10.90;9.73;;;2.80;99.90;;;;;;5035892;28;20545;-76
2022/04/03 06:25:57;;;;;;;10.57;9.47;;;2.90;99.90;;;;;;5018034;28;20178;-76
2022/04/03 06:28:23;;;;;;;22.10;19.87;;;2.90;99.90;;;;;;5034689;28;20178;-76
2022/04/03 06:30:49;;;;;;;9.73;8.73;;;3.10;99.90;;;;;;5035180;28;20815;-76
2022/04/03 06:33:17;;;;;;;11.07;9.63;;;2.90;99.90;;;;;;5035413;28;20280;-76
2022/04/03 06:35:43;;;;;;;15.57;13.93;;;2.80;99.90;;;;;;5035897;28;20206;-76
2022/04/03 06:38:08;;;;;;;12.13;10.93;;;3.00;99.90;;;;;;5035735;28;20442;-76
2022/04/03 06:40:35;;;;;;;9.90;8.50;;;3.00;99.90;;;;;;5035935;28;20432;-76
2022/04/03 06:43:01;;;;;;;10.23;9.27;;;3.10;99.90;;;;;;5035332;28;20261;-74
2022/04/03 06:45:28;;;;;;;10.03;9.03;;;3.20;99.90;;;;;;5034870;28;20417;-76
2022/04/03 06:47:55;;;;;;;11.17;9.00;;;3.40;99.90;;;;;;5035214;28;20402;-76
2022/04/03 06:50:21;;;;;;;14.67;10.60;;;3.30;99.90;;;;;;5035401;28;20410;-75
2022/04/03 06:52:47;;;;;;;19.80;18.10;;;3.00;99.90;;;;;;5035251;28;20464;-75
2022/04/03 06:55:13;;;;;;;11.40;10.30;;;3.00;99.90;;;;;;5035440;28;20176;-75
2022/04/03 06:57:38;;;;;;;14.03;11.57;;;3.40;99.90;;;;;;5035246;28;20929;-75
2022/04/03 07:00:06;;;;;;;14.37;11.73;;;3.60;99.90;;;;;;5034850;28;20178;-75
2022/04/03 07:02:32;;;;;;;9.83;8.80;;;3.80;99.90;;;;;;5034880;28;20499;-75
2022/04/03 07:04:58;;;;;;;10.77;9.67;;;3.20;99.90;;;;;;5034806;28;20433;-76
2022/04/03 07:07:25;;;;;;;10.20;9.20;;;3.50;99.90;;;;;;5035436;28;20871;-75
2022/04/03 07:09:52;;;;;;;10.33;9.13;;;3.40;99.90;;;;;;5034836;28;20283;-76
2022/04/03 07:12:18;;;;;;;11.60;10.40;;;3.50;99.90;;;;;;5031390;28;20505;-76
2022/04/03 07:14:44;;;;;;;11.20;10.00;;;3.40;99.90;;;;;;5032919;28;20450;-76
2022/04/03 07:17:10;;;;;;;10.20;9.20;;;3.30;99.90;;;;;;5035289;28;20414;-76
2022/04/03 07:19:35;;;;;;;10.17;8.80;;;3.50;99.90;;;;;;5035489;28;20178;-76
2022/04/03 07:22:01;;;;;;;11.00;9.90;;;3.80;99.90;;;;;;5034978;28;20245;-76
2022/04/03 07:24:27;;;;;;;10.80;9.80;;;4.20;99.90;;;;;;5036238;28;20690;-77
2022/04/03 07:26:53;;;;;;;9.70;8.70;;;4.40;99.90;;;;;;5034585;28;20568;-76
2022/04/03 07:29:20;;;;;;;10.10;7.50;;;4.80;99.90;;;;;;5034193;28;20163;-76
2022/04/03 07:31:45;;;;;;;8.30;7.50;;;4.70;99.90;;;;;;5034899;28;20410;-76
2022/04/03 07:34:11;;;;;;;8.90;8.00;;;4.50;99.90;;;;;;5034261;28;20468;-76
2022/04/03 07:36:37;;;;;;;9.90;8.23;;;4.60;99.90;;;;;;5034555;28;20503;-76
2022/04/03 07:39:03;;;;;;;9.53;8.63;;;4.30;99.90;;;;;;5034713;28;20203;-76
2022/04/03 07:41:28;;;;;;;8.83;8.00;;;4.00;99.90;;;;;;5034492;28;20167;-77
2022/04/03 07:43:54;;;;;;;8.27;7.47;;;4.10;99.90;;;;;;5034060;28;20662;-76
2022/04/03 07:46:19;;;;;;;8.93;8.03;;;4.40;99.90;;;;;;5033762;28;20178;-76
2022/04/03 07:48:45;;;;;;;9.60;8.70;;;4.30;99.90;;;;;;5016751;28;20169;-76
2022/04/03 07:51:11;;;;;;;8.80;8.00;;;4.50;99.90;;;;;;5033958;28;20174;-76
2022/04/03 07:53:38;;;;;;;9.30;8.50;;;4.10;99.90;;;;;;5033919;28;20195;-76
2022/04/03 07:56:05;;;;;;;9.90;8.43;;;4.50;99.90;;;;;;5033905;28;20418;-76
2022/04/03 07:58:35;;;;;;;9.07;8.17;;;4.60;99.90;;;;;;5033766;28;20464;-74
2022/04/03 08:01:01;;;;;;;8.80;7.90;;;4.30;99.90;;;;;;5032850;28;20425;-76
2022/04/03 08:03:27;;;;;;;9.70;7.80;;;3.90;99.90;;;;;;5033335;28;20458;-77
2022/04/03 08:05:54;;;;;;;8.13;7.33;;;3.60;99.90;;;;;;5033778;28;20784;-76
2022/04/03 08:08:20;;;;;;;8.30;7.50;;;3.50;99.90;;;;;;5033931;28;20171;-75
2022/04/03 08:10:46;;;;;;;8.70;7.80;;;3.80;99.90;;;;;;5033828;28;20429;-76
2022/04/03 08:13:11;;;;;;;9.03;7.70;;;4.30;99.90;;;;;;5033573;28;20195;-76
2022/04/03 08:15:37;;;;;;;8.97;7.50;;;3.80;99.90;;;;;;5032260;28;20563;-76
2022/04/03 08:18:03;;;;;;;8.63;7.83;;;4.10;99.90;;;;;;5033474;28;20183;-76
2022/04/03 08:20:28;;;;;;;8.47;7.67;;;4.50;99.90;;;;;;5033415;28;20178;-76
2022/04/03 08:22:55;;;;;;;8.57;7.80;;;4.50;99.90;;;;;;5032417;28;20199;-76
2022/04/03 08:25:20;;;;;;;9.27;7.87;;;4.50;99.90;;;;;;5033553;28;20175;-76
2022/04/03 08:27:54;;;;;;;9.90;8.90;;;4.00;99.90;;;;;;5033257;28;20410;-76
2022/04/03 08:30:24;;;;;;;9.13;8.23;;;3.80;99.90;;;;;;5033067;28;20522;-76
2022/04/03 08:32:50;;;;;;;9.00;8.17;;;3.90;99.90;;;;;;5015411;28;20764;-76
2022/04/03 08:35:17;;;;;;;11.10;10.00;;;4.10;99.90;;;;;;5032932;28;20437;-75
2022/04/03 08:37:44;;;;;;;12.00;7.57;;;4.10;99.90;;;;;;5033409;28;20445;-77
2022/04/03 08:40:11;;;;;;;8.83;7.87;;;3.80;99.90;;;;;;5014890;28;20414;-76
2022/04/03 08:42:37;;;;;;;9.27;7.90;;;4.20;99.90;;;;;;5033015;28;20540;-76
2022/04/03 08:45:04;;;;;;;10.07;8.20;;;4.30;99.90;;;;;;5033006;28;20425;-75
2022/04/03 08:47:31;;;;;;;8.90;8.00;;;4.70;99.90;;;;;;5033111;28;20437;-76
2022/04/03 08:50:00;;;;;;;7.83;7.13;;;5.10;99.90;;;;;;5033330;28;20923;-77
2022/04/03 08:52:27;;;;;;;8.20;7.40;;;5.20;99.90;;;;;;5032959;28;20421;-76
2022/04/03 08:54:53;;;;;;;6.67;6.03;;;4.90;99.90;;;;;;5032954;28;20437;-77
2022/04/03 08:57:19;;;;;;;9.13;7.00;;;4.90;99.90;;;;;;5032646;28;20418;-78
2022/04/03 08:59:45;;;;;;;7.20;6.50;;;4.60;99.90;;;;;;5032613;28;20429;-76
2022/04/03 09:02:14;;;;;;;6.93;6.23;;;4.50;99.90;;;;;;5032991;28;20234;-76
2022/04/03 09:04:40;;;;;;;6.37;5.77;;;4.80;99.90;;;;;;5033339;28;20844;-77
2022/04/03 09:07:05;;;;;;;6.50;5.87;;;5.50;99.90;;;;;;5033928;28;20485;-77
2022/04/03 09:09:32;;;;;;;7.90;6.53;;;5.90;99.90;;;;;;5033572;28;20168;-75
2022/04/03 09:12:12;;;;;;;7.70;5.87;;;6.10;99.90;;;;;;5035680;28;20409;-76
2022/04/03 09:14:45;;;;;;;5.50;5.00;;;6.20;99.90;;;;;;5035689;28;20930;-76
2022/04/03 09:17:10;;;;;;;5.30;4.77;;;5.70;99.90;;;;;;5036575;28;20441;-77
2022/04/03 09:19:36;;;;;;;7.10;6.40;;;5.50;99.90;;;;;;5036767;28;20503;-76
2022/04/03 09:22:02;;;;;;;7.83;6.33;;;5.50;99.90;;;;;;5036214;28;20195;-77
2022/04/03 09:24:28;;;;;;;5.93;5.43;;;5.70;99.90;;;;;;5039015;28;20195;-76
2022/04/03 09:26:59;;;;;;;7.00;6.30;;;6.00;99.90;;;;;;5019598;28;20410;-77
2022/04/03 09:29:25;;;;;;;5.60;5.10;;;5.70;99.90;;;;;;5037152;28;20401;-77
2022/04/03 09:31:58;;;;;;;6.90;6.20;;;5.30;99.90;;;;;;5035965;28;20846;-77
2022/04/03 09:34:26;;;;;;;6.70;6.07;;;5.30;99.90;;;;;;5036531;28;20214;-76
2022/04/03 09:37:00;;;;;;;6.43;5.93;;;5.00;99.90;;;;;;5036490;28;20410;-76
2022/04/03 09:39:28;;;;;;;6.33;5.37;;;5.10;99.90;;;;;;5036909;28;20382;-76
2022/04/03 09:42:08;;;;;;;6.50;5.90;;;5.40;99.90;;;;;;5036803;28;20467;-76
2022/04/03 09:44:34;;;;;;;7.07;6.47;;;5.70;99.90;;;;;;5036396;28;20434;-77
2022/04/03 09:47:21;;;;;;;6.23;5.60;;;5.80;99.90;;;;;;5036177;28;20443;-77
2022/04/03 09:50:03;;;;;;;5.90;5.40;;;5.80;99.90;;;;;;5036577;28;20605;-76
2022/04/03 09:52:48;;;;;;;6.53;5.93;;;5.60;99.90;;;;;;5037052;28;20874;-76
2022/04/03 09:55:20;;;;;;;5.83;5.23;;;5.50;99.90;;;;;;5035950;28;20453;-76
2022/04/03 09:58:03;;;;;;;7.07;6.33;;;5.40;99.90;;;;;;5036395;28;20390;-76
2022/04/03 10:00:33;;;;;;;6.87;6.10;;;5.50;99.90;;;;;;5036076;28;20452;-76
2022/04/03 10:03:02;;;;;;;7.43;6.73;;;5.40;99.90;;;;;;5036458;28;20461;-78
2022/04/03 10:05:33;;;;;;;8.10;7.30;;;5.60;99.90;;;;;;5035517;28;20409;-73
2022/04/03 10:08:01;;;;;;;8.30;6.43;;;6.10;99.90;;;;;;5035464;28;20167;-75
2022/04/03 10:10:31;;;;;;;7.20;6.60;;;6.10;99.90;;;;;;5036445;28;20403;-72
2022/04/03 10:12:58;;;;;;;6.57;5.93;;;6.10;99.90;;;;;;5035706;28;21012;-71
2022/04/03 10:15:24;;;;;;;7.23;6.53;;;5.90;99.90;;;;;;5034483;28;20429;-73
2022/04/03 10:17:50;;;;;;;6.20;5.57;;;5.80;99.90;;;;;;5035805;28;20406;-72
2022/04/03 10:20:16;;;;;;;8.50;5.90;;;5.90;99.90;;;;;;5035895;28;20410;-74
2022/04/03 10:22:45;;;;;;;8.53;5.70;;;5.40;99.90;;;;;;5035003;28;20230;-73
2022/04/03 10:25:15;;;;;;;6.07;5.57;;;5.30;99.90;;;;;;5017804;28;20167;-74
2022/04/03 10:27:43;;;;;;;5.50;5.10;;;5.50;99.90;;;;;;5035668;28;20941;-75
2022/04/03 10:30:10;;;;;;;6.37;5.70;;;5.70;99.90;;;;;;5035213;28;20398;-75
2022/04/03 10:32:36;;;;;;;5.60;5.20;;;5.50;99.90;;;;;;5035935;28;20409;-75
2022/04/03 10:35:11;;;;;;;5.10;4.60;;;5.60;99.90;;;;;;5034350;28;20444;-75
2022/04/03 10:37:40;;;;;;;6.70;4.97;;;5.40;99.90;;;;;;5015947;28;20390;-76
2022/04/03 10:40:09;;;;;;;6.30;4.40;;;5.40;99.90;;;;;;5015524;28;20403;-75
2022/04/03 10:42:51;;;;;;;6.70;5.23;;;5.40;99.90;;;;;;5015784;28;20457;-76
2022/04/03 10:45:33;;;;;;;8.23;4.93;;;5.40;99.90;;;;;;5023137;28;20414;-75
2022/04/03 10:48:21;;;;;;;7.20;6.23;;;5.80;99.90;;;;;;5035293;28;20418;-76
2022/04/03 10:51:00;;;;;;;4.80;4.40;;;6.10;99.90;;;;;;5035123;28;20390;-75
2022/04/03 10:53:42;;;;;;;7.00;4.63;;;6.10;99.90;;;;;;5034978;28;20430;-75
2022/04/03 10:56:25;;;;;;;5.07;4.67;;;6.00;99.90;;;;;;5034951;28;20387;-75
2022/04/03 10:58:53;;;;;;;5.93;4.70;;;5.70;99.90;;;;;;5035319;28;20405;-74
2022/04/03 11:01:31;;;;;;;6.00;4.40;;;5.60;99.90;;;;;;5034663;28;20412;-75
2022/04/03 11:04:01;;;;;;;4.90;4.50;;;5.40;99.90;;;;;;5034903;28;20460;-75
2022/04/03 11:06:32;;;;;;;4.33;3.93;;;5.60;99.90;;;;;;5035115;28;20565;-75
2022/04/03 11:09:05;;;;;;;4.73;4.13;;;5.70;99.90;;;;;;5035290;28;20772;-75
2022/04/03 11:11:39;;;;;;;5.13;4.73;;;5.10;99.90;;;;;;5040085;28;20376;-75
2022/04/03 11:14:32;;;;;;;7.40;5.07;;;5.40;99.90;;;;;;5034504;28;20520;-75
2022/04/03 11:16:58;;;;;;;5.80;4.50;;;5.80;99.90;;;;;;5014358;28;20403;-75
2022/04/03 11:19:41;;;;;;;5.33;4.83;;;6.20;99.90;;;;;;5015121;28;20399;-76
2022/04/03 11:22:10;;;;;;;6.10;4.67;;;6.70;99.90;;;;;;4997121;28;20188;-75
2022/04/03 11:24:37;;;;;;;4.10;3.80;;;7.30;99.90;;;;;;5014803;28;20427;-76
2022/04/03 11:27:04;;;;;;;4.40;4.10;;;7.40;99.90;;;;;;5014948;28;20406;-76
2022/04/03 11:29:30;;;;;;;6.20;4.77;;;7.80;99.90;;;;;;5021967;28;20407;-75
2022/04/03 11:31:56;;;;;;;4.27;3.93;;;8.20;99.90;;;;;;5034305;28;20414;-75
2022/04/03 11:34:28;;;;;;;6.37;4.37;;;9.00;98.70;;;;;;5015300;28;20206;-76
2022/04/03 11:36:59;;;;;;;4.60;4.00;;;9.90;97.20;;;;;;5016792;28;20397;-75
2022/04/03 11:39:31;;;;;;;5.57;4.33;;;9.60;98.50;;;;;;5034451;28;20385;-75
2022/04/03 11:41:58;;;;;;;4.17;3.77;;;9.60;99.10;;;;;;5016712;28;20881;-75
2022/04/03 11:44:24;;;;;;;4.37;3.80;;;9.50;96.60;;;;;;5033989;28;20432;-74
2022/04/03 11:46:50;;;;;;;6.90;4.90;;;8.60;95.90;;;;;;5061665;22;20490;-71
2022/04/03 11:49:28;;;;;;;4.40;4.00;;;8.40;95.90;;;;;;5034288;28;20437;-71
2022/04/03 11:51:56;;;;;;;5.10;4.00;;;8.00;97.90;;;;;;5016403;28;20526;-71
2022/04/03 11:54:21;;;;;;;4.00;3.60;;;7.70;96.30;;;;;;5033757;28;20392;-71
2022/04/03 11:56:47;;;;;;;5.10;4.60;;;6.90;96.80;;;;;;5033742;28;20765;-71
2022/04/03 11:59:16;;;;;;;5.60;5.10;;;6.60;99.60;;;;;;5033940;28;20486;-71
2022/04/03 12:01:50;;;;;;;8.83;4.90;;;6.50;99.90;;;;;;5033116;28;20225;-71
2022/04/03 12:04:16;;;;;;;5.60;4.10;;;6.50;99.90;;;;;;5016077;28;20408;-71
2022/04/03 12:06:58;;;;;;;4.00;3.60;;;6.50;99.90;;;;;;5034042;28;20421;-71
2022/04/03 12:09:24;;;;;;;4.20;3.80;;;6.30;98.50;;;;;;5034516;28;20969;-71
2022/04/03 12:11:53;;;;;;;4.70;4.30;;;6.10;98.90;;;;;;5034110;28;20912;-71
2022/04/03 12:14:33;;;;;;;7.63;4.93;;;5.80;98.80;;;;;;5033487;28;20406;-71
2022/04/03 12:17:00;;;;;;;3.97;3.57;;;6.30;98.90;;;;;;5033660;28;20421;-70
2022/04/03 12:19:27;;;;;;;5.53;4.50;;;6.70;99.10;;;;;;5033741;28;20924;-70
2022/04/03 12:21:56;;;;;;;4.57;4.10;;;6.90;99.80;;;;;;5033160;28;20410;-69
2022/04/03 12:24:27;;;;;;;4.40;4.00;;;7.00;99.90;;;;;;5032300;28;20433;-70
2022/04/03 12:27:16;;;;;;;4.73;4.27;;;7.30;99.30;;;;;;5032427;28;20438;-69
2022/04/03 12:29:48;;;;;;;5.43;4.43;;;7.30;97.70;;;;;;5032872;28;20473;-70
2022/04/03 12:32:17;;;;;;;7.00;4.20;;;7.30;98.40;;;;;;5033058;28;20398;-70
2022/04/03 12:34:50;;;;;;;4.10;3.80;;;7.20;98.80;;;;;;5032087;28;20449;-70
2022/04/03 12:37:16;;;;;;;5.00;4.50;;;7.00;97.70;;;;;;5032677;28;20428;-70
2022/04/03 12:39:45;;;;;;;4.73;4.20;;;6.80;99.30;;;;;;5031631;28;20443;-70
2022/04/03 12:42:33;;;;;;;6.90;4.50;;;6.70;99.40;;;;;;5033178;28;20460;-70
2022/04/03 12:45:15;;;;;;;5.47;4.97;;;6.60;98.90;;;;;;5031263;28;20797;-70
2022/04/03 12:47:46;;;;;;;5.30;4.80;;;6.70;99.50;;;;;;5014904;28;20544;-69